Adrian, Oregon
Current Conditions -  °F | °C
As of 3:07 PM on Friday 24 Oct 2014 (Local Time) from KONO Reporting Station
Broken Clouds Broken Clouds  
Wind Chill: 15°   Ceiling: 1900
Heat Index: 15°   Visibility: 10mi
Dew Point: 10°   Wind: 0mph
Humidity: 72%   Direction: NA
Pressure: 30.04"   Gusts: NA
Location:  43.74°N, 117.07°W
Report Text: KONO 242107Z AUTO 00000KT 10SM BKN019 15/10 A3004 RMK AO2 T01500100
Loading
Personal Weather Stations






























Interactive Weather Map
Tropical Storm Tracking
New forecast layout! Learn more

10-Day Weather Forecast

Advertisements
Track Severe Weather on mobile